Time;durP1;ratioP1;P1;durP2;ratioP2;P2;SDS_P1;SDS_P2;PMS_P1;PMS_P2;Temp;Humidity;BMP_temperature;BMP_pressure;BME280_temperature;BME280_humidity;BME280_pressure;Samples;Min_cycle;Max_cycle;Signal;HPM_P1;HPM_P2
2021/08/07 00:00:57;;;;;;;16.25;3.63;;;18.20;99.90;;;;;;4973262;28;20674;-80
2021/08/07 00:03:23;;;;;;;8.32;3.05;;;18.20;99.90;;;;;;4972266;28;20173;-79
2021/08/07 00:05:49;;;;;;;3.88;2.70;;;18.20;99.90;;;;;;4974029;28;20198;-78
2021/08/07 00:08:14;;;;;;;10.40;3.75;;;18.10;99.90;;;;;;4977701;28;20174;-78
2021/08/07 00:10:40;;;;;;;4.63;2.92;;;18.10;99.90;;;;;;4977737;28;20198;-78
2021/08/07 00:13:05;;;;;;;5.15;3.53;;;18.10;99.90;;;;;;4977298;28;20178;-79
2021/08/07 00:15:31;;;;;;;4.90;2.60;;;18.00;99.90;;;;;;4976939;28;20193;-79
2021/08/07 00:17:57;;;;;;;3.88;2.65;;;18.20;99.90;;;;;;4977122;28;20174;-81
2021/08/07 00:20:23;;;;;;;9.32;3.33;;;18.00;99.90;;;;;;4977554;28;20162;-78
2021/08/07 00:22:49;;;;;;;6.75;2.67;;;18.00;99.90;;;;;;4977111;28;20170;-78
2021/08/07 00:25:15;;;;;;;15.77;2.47;;;18.10;99.90;;;;;;4978106;28;20665;-79
2021/08/07 00:27:40;;;;;;;8.93;2.22;;;18.20;99.90;;;;;;4977554;28;20221;-78
2021/08/07 00:30:07;;;;;;;5.05;2.22;;;18.30;99.90;;;;;;4977376;28;20184;-78
2021/08/07 00:32:33;;;;;;;5.43;2.63;;;18.50;99.90;;;;;;4977461;28;20202;-80
2021/08/07 00:34:59;;;;;;;7.80;2.38;;;18.60;99.90;;;;;;4977116;28;20587;-78
2021/08/07 00:37:25;;;;;;;7.68;2.00;;;18.50;99.90;;;;;;4976852;28;20217;-78
2021/08/07 00:39:51;;;;;;;10.50;2.22;;;18.40;99.90;;;;;;4977717;28;20622;-77
2021/08/07 00:42:17;;;;;;;2.88;2.38;;;18.30;99.90;;;;;;4977071;28;20177;-78
2021/08/07 00:44:43;;;;;;;3.60;2.10;;;18.40;99.90;;;;;;4977703;28;20170;-78
2021/08/07 00:47:08;;;;;;;5.30;1.88;;;18.50;99.90;;;;;;4977336;28;20186;-79
2021/08/07 00:49:35;;;;;;;3.17;1.90;;;18.50;99.90;;;;;;4976952;28;20526;-77
2021/08/07 00:52:01;;;;;;;7.32;1.80;;;18.40;99.90;;;;;;4977247;28;20169;-77
2021/08/07 00:54:26;;;;;;;6.78;2.33;;;18.40;99.90;;;;;;4977532;28;20178;-78
2021/08/07 00:56:52;;;;;;;3.08;1.45;;;18.40;99.90;;;;;;4976542;28;20213;-78
2021/08/07 00:59:18;;;;;;;4.25;1.60;;;18.30;99.90;;;;;;4976980;28;20170;-78
2021/08/07 01:01:45;;;;;;;3.38;1.65;;;18.10;99.90;;;;;;4976929;28;20252;-78
2021/08/07 01:04:22;;;;;;;11.65;2.10;;;18.20;99.90;;;;;;4976765;28;20169;-78
2021/08/07 01:06:53;;;;;;;3.58;1.83;;;18.30;99.90;;;;;;5007861;28;20560;-81
2021/08/07 01:09:58;;;;;;;3.15;1.42;;;18.30;99.90;;;;;;4976723;28;20173;-77
2021/08/07 01:13:02;;;;;;;7.70;1.70;;;18.30;99.90;;;;;;4976460;28;20231;-78
2021/08/07 01:15:30;;;;;;;2.08;1.60;;;18.00;99.90;;;;;;4974430;28;20541;-77
2021/08/07 01:17:58;;;;;;;3.53;1.85;;;18.20;99.90;;;;;;4975005;28;20630;-78
2021/08/07 01:20:30;;;;;;;2.50;1.75;;;18.20;99.90;;;;;;4976551;28;20519;-79
2021/08/07 01:23:22;;;;;;;13.63;1.98;;;18.20;99.90;;;;;;4975031;28;20337;-78
2021/08/07 01:25:57;;;;;;;4.95;1.70;;;18.30;99.90;;;;;;4974759;28;20239;-78
2021/08/07 01:28:32;;;;;;;3.13;1.80;;;18.40;99.90;;;;;;4976230;28;20169;-79
2021/08/07 01:30:59;;;;;;;3.83;1.83;;;18.60;99.90;;;;;;4976367;28;20220;-78
2021/08/07 01:33:29;;;;;;;3.35;1.77;;;18.70;99.90;;;;;;4976163;28;20524;-80
2021/08/07 01:35:55;;;;;;;5.90;1.40;;;18.70;99.90;;;;;;4975987;28;20606;-78
2021/08/07 01:38:21;;;;;;;6.32;1.85;;;18.80;99.90;;;;;;4975499;28;20630;-78
2021/08/07 01:40:47;;;;;;;6.82;2.28;;;18.60;99.90;;;;;;4975825;28;20189;-78
2021/08/07 01:43:13;;;;;;;10.15;1.92;;;18.50;99.90;;;;;;4975976;28;20204;-78
2021/08/07 01:45:39;;;;;;;9.75;1.70;;;18.60;99.90;;;;;;4976046;28;20263;-78
2021/08/07 01:48:39;;;;;;;3.08;1.60;;;18.70;99.90;;;;;;4976051;28;20248;-82
2021/08/07 01:51:18;;;;;;;5.75;1.40;;;18.60;99.90;;;;;;4975619;28;20534;-77
2021/08/07 01:53:45;;;;;;;5.97;1.58;;;18.40;99.90;;;;;;4975718;28;20173;-79
2021/08/07 01:56:25;;;;;;;8.18;1.75;;;18.50;99.90;;;;;;4975898;28;20618;-77
2021/08/07 01:59:03;;;;;;;2.90;1.77;;;18.60;99.90;;;;;;4975695;28;20162;-77
2021/08/07 02:01:29;;;;;;;4.15;1.75;;;18.80;99.90;;;;;;5006791;28;20174;-78
2021/08/07 02:03:58;;;;;;;3.67;2.17;;;18.70;99.90;;;;;;4975567;28;20169;-78
2021/08/07 02:06:24;;;;;;;10.90;2.08;;;18.60;99.90;;;;;;4975794;28;20225;-77
2021/08/07 02:08:51;;;;;;;2.13;1.67;;;18.70;99.90;;;;;;4975448;28;20172;-79
2021/08/07 02:11:18;;;;;;;3.15;1.58;;;18.80;99.90;;;;;;4975704;28;20223;-77
2021/08/07 02:13:46;;;;;;;3.42;1.58;;;18.80;99.90;;;;;;4975785;28;20227;-85
2021/08/07 02:16:12;;;;;;;9.82;2.17;;;18.50;99.90;;;;;;4974948;28;20214;-78
2021/08/07 02:18:40;;;;;;;6.47;2.45;;;18.40;99.90;;;;;;4974169;28;20213;-78
2021/08/07 02:21:07;;;;;;;3.58;1.63;;;18.40;99.90;;;;;;4975376;28;20170;-78
2021/08/07 02:23:33;;;;;;;3.85;2.13;;;18.50;99.90;;;;;;4975323;28;20204;-78
2021/08/07 02:26:04;;;;;;;4.90;2.42;;;18.50;99.90;;;;;;4974044;28;20194;-78
2021/08/07 02:28:30;;;;;;;4.78;1.50;;;18.30;99.90;;;;;;4973633;28;20180;-78
2021/08/07 02:30:58;;;;;;;4.22;1.77;;;18.40;99.90;;;;;;4975011;28;20209;-81
2021/08/07 02:33:26;;;;;;;7.47;1.88;;;18.50;99.90;;;;;;4975285;28;20170;-82
2021/08/07 02:35:54;;;;;;;1.60;1.50;;;18.40;99.90;;;;;;4974986;28;20570;-81
2021/08/07 02:38:20;;;;;;;5.65;1.40;;;18.50;99.90;;;;;;4975016;28;20170;-77
2021/08/07 02:40:46;;;;;;;7.10;1.65;;;18.50;99.90;;;;;;4975143;28;20177;-78
2021/08/07 02:43:15;;;;;;;3.90;1.63;;;18.30;99.90;;;;;;4974823;28;20189;-78
2021/08/07 02:45:41;;;;;;;5.47;1.48;;;18.40;99.90;;;;;;4974867;28;20244;-78
2021/08/07 02:48:07;;;;;;;2.25;1.85;;;18.30;99.90;;;;;;4974903;28;20174;-78
2021/08/07 02:50:33;;;;;;;1.40;1.30;;;18.20;99.90;;;;;;4974957;28;20228;-77
2021/08/07 02:53:00;;;;;;;6.63;1.60;;;18.20;99.90;;;;;;4975039;28;20186;-77
2021/08/07 02:55:26;;;;;;;9.07;2.13;;;17.80;99.90;;;;;;4974734;28;20173;-77
2021/08/07 02:57:52;;;;;;;7.32;1.80;;;17.90;99.90;;;;;;4972978;28;20182;-77
2021/08/07 03:00:19;;;;;;;10.25;1.90;;;18.00;99.90;;;;;;4974370;28;20158;-79
2021/08/07 03:02:45;;;;;;;3.88;1.65;;;18.20;99.90;;;;;;4974475;28;20178;-85
2021/08/07 03:05:10;;;;;;;7.10;1.45;;;18.00;99.90;;;;;;4974528;28;20320;-80
2021/08/07 03:07:36;;;;;;;5.40;1.60;;;17.80;99.90;;;;;;4974636;28;20193;-78
2021/08/07 03:10:05;;;;;;;1.88;1.48;;;18.00;99.90;;;;;;4974331;28;20177;-78
2021/08/07 03:12:31;;;;;;;6.28;1.30;;;17.90;99.90;;;;;;4974338;28;20682;-78
2021/08/07 03:14:56;;;;;;;5.00;1.58;;;17.90;99.90;;;;;;4974293;28;20300;-78
2021/08/07 03:17:22;;;;;;;5.75;1.75;;;17.90;99.90;;;;;;4974003;28;20892;-78
2021/08/07 03:19:47;;;;;;;3.90;1.67;;;17.50;99.90;;;;;;4974067;28;20174;-81
2021/08/07 03:22:13;;;;;;;4.43;1.63;;;17.60;99.90;;;;;;4974017;28;20253;-78
2021/08/07 03:24:39;;;;;;;1.83;1.35;;;17.60;99.90;;;;;;4974235;28;20170;-78
2021/08/07 03:27:04;;;;;;;2.10;1.58;;;17.60;99.90;;;;;;4973127;28;20197;-83
2021/08/07 03:29:30;;;;;;;3.65;1.55;;;17.70;99.90;;;;;;4974095;28;20168;-79
2021/08/07 03:31:56;;;;;;;3.83;1.70;;;17.80;99.90;;;;;;4974081;28;20166;-77
2021/08/07 03:34:21;;;;;;;4.97;1.67;;;17.90;99.90;;;;;;4973804;28;20168;-77
2021/08/07 03:36:47;;;;;;;2.65;1.50;;;17.80;99.90;;;;;;4973654;28;20213;-80
2021/08/07 03:39:13;;;;;;;4.80;1.40;;;17.70;99.90;;;;;;4973806;28;20217;-78
2021/08/07 03:41:38;;;;;;;6.20;1.58;;;17.70;99.90;;;;;;4973169;28;20176;-78
2021/08/07 03:44:04;;;;;;;8.40;1.88;;;17.80;99.90;;;;;;4973927;28;20182;-77
2021/08/07 03:46:30;;;;;;;10.93;1.67;;;17.70;99.90;;;;;;4973870;28;20196;-78
2021/08/07 03:48:55;;;;;;;8.90;1.63;;;17.70;99.90;;;;;;4975099;28;20162;-81
2021/08/07 03:51:21;;;;;;;8.90;1.92;;;17.80;99.90;;;;;;4974049;28;20251;-79
2021/08/07 03:53:46;;;;;;;2.45;1.35;;;17.80;99.90;;;;;;4972483;28;20176;-77
2021/08/07 03:56:12;;;;;;;1.42;1.08;;;17.90;99.90;;;;;;4973205;28;20213;-77
2021/08/07 03:58:37;;;;;;;6.00;1.33;;;17.90;99.90;;;;;;4973816;28;20174;-77
2021/08/07 04:01:03;;;;;;;7.55;1.85;;;17.90;99.90;;;;;;4973408;28;20290;-81
2021/08/07 04:03:29;;;;;;;5.30;1.40;;;18.10;99.90;;;;;;4973479;28;20627;-81
2021/08/07 04:05:54;;;;;;;5.18;1.80;;;18.30;99.90;;;;;;4973772;28;20198;-77
2021/08/07 04:08:20;;;;;;;1.88;1.10;;;18.30;99.90;;;;;;4973756;28;20565;-78
2021/08/07 04:10:46;;;;;;;4.45;1.50;;;18.00;99.90;;;;;;4973800;28;20177;-80
2021/08/07 04:13:11;;;;;;;2.45;1.60;;;18.00;99.90;;;;;;4973807;28;20169;-80
2021/08/07 04:15:38;;;;;;;3.65;1.45;;;18.10;99.90;;;;;;4973726;28;20296;-77
2021/08/07 04:18:04;;;;;;;3.05;1.52;;;18.10;99.90;;;;;;4973759;28;20178;-79
2021/08/07 04:20:29;;;;;;;9.93;1.75;;;18.30;99.90;;;;;;4973813;28;20578;-81
2021/08/07 04:22:55;;;;;;;11.20;1.58;;;18.40;99.90;;;;;;4973622;28;20208;-84
2021/08/07 04:25:21;;;;;;;16.80;1.83;;;18.50;99.90;;;;;;4973204;28;20255;-79
2021/08/07 04:27:46;;;;;;;2.83;1.50;;;18.60;99.90;;;;;;4973363;28;20688;-78
2021/08/07 04:30:12;;;;;;;9.63;1.33;;;18.30;99.90;;;;;;4973588;28;20170;-77
2021/08/07 04:32:38;;;;;;;10.82;2.00;;;18.20;99.90;;;;;;4973441;28;20614;-79
2021/08/07 04:35:04;;;;;;;1.67;1.10;;;18.10;99.90;;;;;;4971996;28;20524;-79
2021/08/07 04:37:30;;;;;;;8.05;1.42;;;18.20;99.90;;;;;;4973186;28;20217;-78
2021/08/07 04:39:55;;;;;;;5.35;1.55;;;18.30;99.90;;;;;;4973112;28;20166;-78
2021/08/07 04:42:21;;;;;;;4.90;1.98;;;18.40;99.90;;;;;;4973452;28;20174;-81
2021/08/07 04:44:47;;;;;;;4.35;1.75;;;18.50;99.90;;;;;;4973567;28;20208;-78
2021/08/07 04:47:12;;;;;;;4.57;1.20;;;18.60;99.90;;;;;;4971635;28;20284;-77
2021/08/07 04:49:38;;;;;;;7.55;2.08;;;18.60;99.90;;;;;;4972861;28;20169;-79
2021/08/07 04:52:04;;;;;;;2.60;1.38;;;18.50;99.90;;;;;;4973859;28;20221;-78
2021/08/07 04:54:30;;;;;;;7.28;1.90;;;18.60;99.90;;;;;;4976644;28;20665;-79
2021/08/07 04:56:56;;;;;;;4.65;1.40;;;18.50;99.90;;;;;;4976819;28;20241;-78
2021/08/07 04:59:21;;;;;;;5.00;1.50;;;18.60;99.90;;;;;;4976798;28;20173;-79
2021/08/07 05:01:47;;;;;;;2.38;1.20;;;18.40;99.90;;;;;;4976743;28;20178;-79
2021/08/07 05:04:13;;;;;;;7.97;1.63;;;18.60;99.90;;;;;;4976395;28;20170;-79
2021/08/07 05:06:39;;;;;;;6.25;2.17;;;18.90;99.90;;;;;;4976471;28;20606;-78
2021/08/07 05:09:05;;;;;;;9.20;2.08;;;18.90;99.90;;;;;;4976340;28;20181;-81
2021/08/07 05:11:31;;;;;;;2.90;1.60;;;19.00;99.90;;;;;;4976333;28;20154;-78
2021/08/07 05:13:57;;;;;;;7.07;1.73;;;18.70;99.90;;;;;;4976325;28;20193;-78
2021/08/07 05:16:23;;;;;;;7.95;1.38;;;18.30;99.90;;;;;;4976310;28;20581;-78
2021/08/07 05:18:48;;;;;;;10.93;1.60;;;18.30;99.90;;;;;;4976379;28;20264;-79
2021/08/07 05:21:14;;;;;;;6.15;1.95;;;18.10;99.90;;;;;;4976448;28;20204;-80
2021/08/07 05:23:39;;;;;;;12.82;1.90;;;18.20;99.90;;;;;;4976254;28;20173;-80
2021/08/07 05:26:05;;;;;;;4.55;2.00;;;18.00;99.90;;;;;;4976157;28;20218;-79
2021/08/07 05:28:31;;;;;;;4.47;1.30;;;18.10;99.90;;;;;;4976200;28;20721;-81
2021/08/07 05:30:56;;;;;;;1.45;1.35;;;18.20;99.90;;;;;;4975986;28;20174;-78
2021/08/07 05:33:22;;;;;;;8.30;1.90;;;18.10;99.90;;;;;;4975807;28;20220;-80
2021/08/07 05:35:47;;;;;;;3.88;1.70;;;18.10;99.90;;;;;;4975803;28;20687;-78
2021/08/07 05:38:13;;;;;;;4.93;1.10;;;18.10;99.90;;;;;;4975908;28;20297;-79
2021/08/07 05:40:38;;;;;;;11.68;1.95;;;18.10;99.90;;;;;;4976162;28;20657;-78
2021/08/07 05:43:04;;;;;;;3.55;1.77;;;18.20;99.90;;;;;;4976197;28;20972;-80
2021/08/07 05:45:30;;;;;;;8.60;2.25;;;18.40;99.90;;;;;;4976170;28;20166;-78
2021/08/07 05:47:55;;;;;;;3.97;1.45;;;18.30;99.90;;;;;;4975813;28;20170;-81
2021/08/07 05:50:21;;;;;;;3.10;1.73;;;18.20;99.90;;;;;;4975342;28;20170;-79
2021/08/07 05:52:46;;;;;;;6.70;2.22;;;18.40;99.90;;;;;;4975572;28;20170;-78
2021/08/07 05:55:12;;;;;;;8.05;1.98;;;18.30;99.90;;;;;;4975850;28;20178;-78
2021/08/07 05:57:38;;;;;;;7.32;1.73;;;18.00;99.90;;;;;;4975559;28;20213;-78
2021/08/07 06:00:04;;;;;;;12.55;2.20;;;18.20;99.90;;;;;;4975775;28;20162;-79
2021/08/07 06:02:32;;;;;;;2.90;1.65;;;18.00;99.90;;;;;;4975715;28;20178;-81
2021/08/07 06:04:58;;;;;;;7.78;1.70;;;18.10;99.90;;;;;;4975048;28;20213;-78
2021/08/07 06:07:24;;;;;;;2.42;2.15;;;18.40;99.90;;;;;;4975092;28;20280;-79
2021/08/07 06:09:50;;;;;;;7.95;1.88;;;18.40;99.90;;;;;;4975595;28;20262;-83
2021/08/07 06:12:15;;;;;;;7.95;1.73;;;18.40;99.90;;;;;;4975472;28;20193;-80
2021/08/07 06:14:41;;;;;;;15.70;2.10;;;18.70;99.90;;;;;;4975473;28;20174;-79
2021/08/07 06:17:07;;;;;;;4.97;1.58;;;18.60;99.90;;;;;;4974991;28;20213;-78
2021/08/07 06:19:33;;;;;;;2.22;1.70;;;18.80;99.90;;;;;;4975541;28;20625;-80
2021/08/07 06:21:58;;;;;;;7.20;1.77;;;18.90;99.90;;;;;;4976022;28;20559;-79
2021/08/07 06:24:24;;;;;;;3.92;1.90;;;19.00;99.90;;;;;;4974944;28;20754;-78
2021/08/07 06:26:49;;;;;;;3.08;1.55;;;18.60;99.90;;;;;;4974918;28;20201;-77
2021/08/07 06:29:15;;;;;;;7.32;2.15;;;18.60;99.90;;;;;;4974970;28;20162;-82
2021/08/07 06:31:41;;;;;;;5.25;2.03;;;18.60;99.90;;;;;;4975018;28;20282;-80
2021/08/07 06:34:06;;;;;;;3.55;1.85;;;18.30;99.90;;;;;;4974963;28;20166;-79
2021/08/07 06:36:32;;;;;;;6.95;2.00;;;18.30;99.90;;;;;;4974627;28;20577;-79
2021/08/07 06:38:58;;;;;;;7.68;2.45;;;18.30;99.90;;;;;;4974933;28;20165;-80
2021/08/07 06:41:24;;;;;;;5.97;2.20;;;18.40;99.90;;;;;;4974540;28;20246;-79
2021/08/07 06:43:49;;;;;;;8.50;2.42;;;18.40;99.90;;;;;;4974956;28;20245;-79
2021/08/07 06:46:15;;;;;;;7.53;1.88;;;18.30;99.90;;;;;;4975000;28;20716;-81
2021/08/07 06:48:41;;;;;;;7.13;1.90;;;18.20;99.90;;;;;;4973288;28;20188;-79
2021/08/07 06:51:07;;;;;;;3.20;1.90;;;18.30;99.90;;;;;;4974318;28;20169;-79
2021/08/07 06:53:33;;;;;;;5.10;1.83;;;18.20;99.90;;;;;;4974363;28;20174;-79
2021/08/07 06:55:59;;;;;;;2.38;1.52;;;18.30;99.90;;;;;;4973062;28;20221;-80
2021/08/07 06:58:25;;;;;;;7.10;1.77;;;18.40;99.90;;;;;;4974891;28;20174;-80
2021/08/07 07:00:50;;;;;;;2.38;1.60;;;18.50;99.90;;;;;;4974483;28;20181;-79
2021/08/07 07:03:16;;;;;;;10.82;1.65;;;18.50;99.90;;;;;;4974596;28;20194;-79
2021/08/07 07:05:42;;;;;;;9.43;1.55;;;18.40;99.90;;;;;;4974348;28;20194;-83
2021/08/07 07:08:08;;;;;;;7.03;2.03;;;18.50;99.90;;;;;;4973606;28;20530;-84
2021/08/07 07:10:33;;;;;;;4.63;2.00;;;18.60;99.90;;;;;;4974402;28;20177;-80
2021/08/07 07:13:00;;;;;;;3.72;1.70;;;18.50;99.90;;;;;;4974167;28;20174;-80
2021/08/07 07:15:26;;;;;;;6.18;1.90;;;18.70;99.90;;;;;;4973890;28;20182;-79
2021/08/07 07:17:51;;;;;;;3.10;1.50;;;18.70;99.90;;;;;;4972501;28;20216;-80
2021/08/07 07:20:18;;;;;;;4.70;2.03;;;18.90;99.90;;;;;;4973308;28;20559;-80
2021/08/07 07:22:44;;;;;;;6.70;1.50;;;19.40;99.90;;;;;;5005705;28;20178;-80
2021/08/07 07:25:13;;;;;;;6.00;1.52;;;20.00;99.90;;;;;;4973898;28;20169;-80
2021/08/07 07:27:40;;;;;;;2.88;1.30;;;20.40;99.90;;;;;;4972948;28;20189;-82
2021/08/07 07:30:07;;;;;;;4.38;1.48;;;21.00;99.90;;;;;;4974280;28;20268;-84
2021/08/07 07:32:33;;;;;;;3.00;1.33;;;21.50;99.90;;;;;;4973447;28;20158;-82
2021/08/07 07:34:58;;;;;;;1.52;1.05;;;21.90;99.90;;;;;;4974210;28;20670;-89
2021/08/07 07:37:25;;;;;;;0.93;0.80;;;22.60;99.90;;;;;;4975552;28;20241;-88
2021/08/07 07:39:51;;;;;;;3.83;1.13;;;23.20;99.90;;;;;;4974021;28;20181;-87
2021/08/07 07:42:16;;;;;;;2.17;0.98;;;23.10;99.90;;;;;;4973537;28;20170;-87
2021/08/07 07:44:42;;;;;;;4.35;1.13;;;22.60;99.90;;;;;;4974574;28;20205;-87
2021/08/07 07:47:08;;;;;;;1.92;1.55;;;22.30;99.90;;;;;;4975209;28;20217;-88
2021/08/07 07:49:33;;;;;;;3.28;1.20;;;21.80;99.90;;;;;;4973583;28;20185;-90
2021/08/07 07:51:59;;;;;;;5.20;1.20;;;21.30;99.90;;;;;;4973632;28;20192;-89
2021/08/07 07:54:25;;;;;;;6.05;1.90;;;20.70;99.90;;;;;;4973942;28;20212;-88
2021/08/07 07:56:50;;;;;;;12.73;1.35;;;20.60;99.90;;;;;;4974756;28;20209;-88
2021/08/07 07:59:16;;;;;;;3.08;1.00;;;20.60;99.90;;;;;;4973943;28;20205;-89
2021/08/07 08:01:41;;;;;;;1.65;1.10;;;20.40;99.90;;;;;;4980101;28;20170;-89
2021/08/07 08:04:07;;;;;;;2.63;1.38;;;20.40;99.90;;;;;;4979071;28;20176;-89
2021/08/07 08:06:33;;;;;;;4.20;1.42;;;20.50;99.90;;;;;;4977848;28;20200;-89
2021/08/07 08:08:59;;;;;;;9.73;1.30;;;20.70;99.90;;;;;;4974155;28;20197;-89
2021/08/07 08:11:24;;;;;;;3.47;1.13;;;20.80;99.90;;;;;;4974958;28;20252;-89
2021/08/07 08:13:50;;;;;;;1.00;0.80;;;20.80;99.90;;;;;;4975799;28;20197;-87
2021/08/07 08:16:16;;;;;;;4.30;0.90;;;20.90;99.90;;;;;;4978155;28;20581;-88
2021/08/07 08:18:41;;;;;;;5.40;1.13;;;21.00;99.90;;;;;;4976632;28;20264;-89
2021/08/07 08:21:07;;;;;;;6.68;1.38;;;21.20;99.90;;;;;;4977213;28;20166;-81
2021/08/07 08:25:59;;;;;;;1.33;0.70;;;21.40;99.90;;;;;;4991076;28;20197;-88
2021/08/07 08:28:25;;;;;;;3.33;0.75;;;21.60;99.90;;;;;;4977520;28;20174;-82
2021/08/07 08:30:50;;;;;;;3.67;1.10;;;21.60;99.90;;;;;;4980782;28;20185;-82
2021/08/07 08:33:16;;;;;;;4.28;1.30;;;21.50;99.90;;;;;;4977686;28;20181;-85
2021/08/07 08:35:42;;;;;;;2.85;0.98;;;21.60;99.90;;;;;;4978278;28;20190;-88
2021/08/07 08:38:08;;;;;;;5.07;1.10;;;21.10;99.90;;;;;;4978032;28;20178;-89
2021/08/07 08:40:35;;;;;;;7.10;1.00;;;21.20;99.90;;;;;;4978150;28;20173;-88
2021/08/07 08:43:00;;;;;;;3.88;0.77;;;21.00;99.90;;;;;;4977908;28;20186;-83
2021/08/07 08:45:26;;;;;;;3.05;1.00;;;20.80;99.90;;;;;;4981012;28;20173;-87
2021/08/07 08:47:52;;;;;;;4.95;1.13;;;21.00;99.90;;;;;;4978821;28;20166;-86
2021/08/07 08:50:22;;;;;;;2.95;1.05;;;21.10;99.90;;;;;;4977882;28;20170;-89
2021/08/07 08:52:49;;;;;;;4.30;0.88;;;21.20;99.90;;;;;;4980229;28;20162;-88
2021/08/07 08:55:15;;;;;;;15.32;1.95;;;21.40;99.90;;;;;;5010696;28;20182;-89
2021/08/07 08:57:41;;;;;;;6.75;1.88;;;21.40;99.90;;;;;;4977463;28;20237;-87
2021/08/07 09:00:09;;;;;;;5.38;1.33;;;21.30;99.90;;;;;;5011855;28;20178;-88
2021/08/07 09:02:36;;;;;;;11.23;1.52;;;21.10;99.90;;;;;;4978178;28;20170;-88
2021/08/07 09:05:04;;;;;;;4.10;1.10;;;21.20;99.90;;;;;;4978477;28;20174;-85
2021/08/07 09:07:29;;;;;;;1.83;1.00;;;21.40;99.90;;;;;;4977763;28;20205;-89
2021/08/07 09:09:57;;;;;;;4.13;1.17;;;21.80;99.90;;;;;;4978672;28;20181;-88
2021/08/07 09:12:38;;;;;;;2.83;1.05;;;22.20;99.90;;;;;;5009462;28;20554;-85
2021/08/07 09:15:05;;;;;;;7.43;1.02;;;22.50;99.90;;;;;;4978179;28;20162;-89
2021/08/07 09:17:30;;;;;;;2.97;0.90;;;22.40;99.90;;;;;;5009412;28;20723;-89
2021/08/07 09:19:59;;;;;;;4.90;1.15;;;22.50;99.90;;;;;;4978253;28;20166;-89
2021/08/07 09:22:27;;;;;;;5.88;1.15;;;22.50;99.90;;;;;;4976684;28;20561;-86
2021/08/07 09:25:01;;;;;;;3.80;0.63;;;22.50;99.90;;;;;;4976570;28;20190;-88
2021/08/07 09:27:32;;;;;;;9.20;1.88;;;23.00;99.90;;;;;;4976740;28;20288;-86
2021/08/07 09:30:00;;;;;;;2.33;0.75;;;23.20;99.90;;;;;;5010352;28;20164;-87
2021/08/07 09:32:26;;;;;;;4.68;1.30;;;23.00;99.90;;;;;;5009673;28;20193;-85
2021/08/07 09:35:05;;;;;;;2.45;0.98;;;23.20;99.90;;;;;;4976518;28;20239;-88
2021/08/07 09:37:31;;;;;;;2.75;0.90;;;23.50;99.90;;;;;;5009327;28;20217;-88
2021/08/07 09:40:00;;;;;;;5.18;1.17;;;23.70;99.90;;;;;;4977966;28;20192;-86
2021/08/07 09:42:28;;;;;;;3.50;1.10;;;23.40;99.90;;;;;;5010113;28;20170;-88
2021/08/07 09:45:05;;;;;;;5.18;1.25;;;23.40;99.90;;;;;;5010007;28;20177;-88
2021/08/07 09:47:32;;;;;;;4.40;0.90;;;23.30;99.90;;;;;;5009612;28;20321;-88
2021/08/07 09:50:00;;;;;;;3.53;0.93;;;23.40;99.90;;;;;;4979498;28;20174;-87
2021/08/07 09:52:38;;;;;;;6.72;1.02;;;23.40;99.90;;;;;;4979803;28;20170;-88
2021/08/07 09:55:04;;;;;;;2.92;0.70;;;23.30;99.90;;;;;;4980861;28;20178;-87
2021/08/07 09:57:30;;;;;;;4.47;0.93;;;23.40;99.90;;;;;;4980271;28;20213;-88
2021/08/07 09:59:56;;;;;;;5.95;1.00;;;23.40;99.90;;;;;;4997564;28;20185;-88
2021/08/07 10:02:32;;;;;;;14.48;0.80;;;23.30;99.90;;;;;;4983117;28;20201;-88
2021/08/07 10:05:01;;;;;;;2.70;0.80;;;23.30;99.90;;;;;;4980123;28;20173;-89
2021/08/07 10:07:27;;;;;;;3.80;0.88;;;23.40;99.90;;;;;;4979777;28;20194;-89
2021/08/07 10:09:54;;;;;;;10.77;1.27;;;23.20;99.90;;;;;;5009832;28;20257;-87
2021/08/07 10:12:20;;;;;;;5.68;0.70;;;23.00;99.90;;;;;;4979459;28;20193;-87
2021/08/07 10:14:47;;;;;;;4.22;0.80;;;22.50;99.90;;;;;;4976938;28;20193;-88
2021/08/07 10:17:16;;;;;;;6.45;0.80;;;22.30;99.90;;;;;;5015100;28;20220;-86
2021/08/07 10:19:42;;;;;;;3.70;0.70;;;22.30;99.90;;;;;;5021216;28;20166;-86
2021/08/07 10:22:10;;;;;;;5.53;0.75;;;22.50;99.90;;;;;;4991532;28;20164;-86
2021/08/07 10:24:38;;;;;;;4.00;0.77;;;22.70;99.90;;;;;;5026350;28;20162;-89
2021/08/07 10:27:04;;;;;;;2.28;0.60;;;22.80;99.90;;;;;;5026146;28;20313;-85
2021/08/07 10:29:51;;;;;;;2.80;0.60;;;22.80;99.90;;;;;;4983049;28;20635;-88
2021/08/07 10:32:17;;;;;;;1.98;0.85;;;22.70;99.90;;;;;;5007576;28;20185;-88
2021/08/07 10:34:49;;;;;;;10.07;0.88;;;22.80;99.90;;;;;;4975100;28;20177;-88
2021/08/07 10:37:15;;;;;;;4.07;1.25;;;22.80;99.90;;;;;;4975913;28;20218;-88
2021/08/07 10:39:41;;;;;;;3.80;0.90;;;22.70;99.90;;;;;;4975237;28;20177;-89
2021/08/07 10:42:08;;;;;;;5.47;0.80;;;23.00;99.90;;;;;;4975703;28;20173;-82
2021/08/07 10:44:36;;;;;;;4.97;0.85;;;23.30;99.90;;;;;;4975326;28;20240;-90
2021/08/07 10:47:02;;;;;;;2.15;0.50;;;23.50;99.90;;;;;;4975543;28;20273;-86
2021/08/07 10:49:37;;;;;;;5.05;0.80;;;23.50;99.90;;;;;;4977019;28;20172;-85
2021/08/07 10:52:40;;;;;;;3.70;0.95;;;23.40;99.90;;;;;;4974626;28;20169;-85
2021/08/07 10:55:44;;;;;;;3.65;0.95;;;23.70;99.90;;;;;;4901658;29;20179;-92
2021/08/07 10:58:33;;;;;;;3.40;0.90;;;24.10;99.90;;;;;;4976074;28;20186;-91
2021/08/07 11:01:21;;;;;;;1.00;0.55;;;24.20;99.90;;;;;;4967698;28;20253;-90
2021/08/07 11:03:49;;;;;;;2.28;0.80;;;24.30;99.90;;;;;;4975647;28;20204;-89
2021/08/07 11:06:15;;;;;;;4.97;0.75;;;23.90;99.90;;;;;;4975345;28;20244;-89
2021/08/07 11:08:41;;;;;;;2.03;1.08;;;23.70;99.90;;;;;;4976927;28;20178;-90
2021/08/07 11:11:31;;;;;;;1.40;0.80;;;23.50;99.90;;;;;;4975168;28;20166;-90
2021/08/07 11:14:24;;;;;;;1.98;0.68;;;23.40;99.90;;;;;;4975525;28;20178;-89
2021/08/07 11:17:05;;;;;;;2.92;0.75;;;23.50;99.90;;;;;;4974653;28;20225;-89
2021/08/07 11:19:50;;;;;;;2.05;0.60;;;23.40;99.90;;;;;;4975164;28;20184;-89
2021/08/07 11:22:16;;;;;;;4.43;1.00;;;23.70;99.90;;;;;;4975231;28;20178;-89
2021/08/07 11:25:11;;;;;;;4.60;1.00;;;23.80;99.90;;;;;;4974787;28;20173;-88
2021/08/07 11:27:46;;;;;;;2.50;0.70;;;24.10;99.90;;;;;;4954126;28;20674;-88
2021/08/07 11:30:25;;;;;;;1.27;0.57;;;23.80;99.90;;;;;;4974968;28;20185;-87
2021/08/07 11:33:04;;;;;;;0.93;0.60;;;23.60;99.90;;;;;;4975027;28;20173;-88
2021/08/07 11:38:18;;;;;;;1.85;0.90;;;23.60;99.90;;;;;;4976374;28;20201;-90
2021/08/07 11:40:49;;;;;;;5.10;1.08;;;24.00;99.90;;;;;;4975220;28;20229;-89
2021/08/07 11:43:23;;;;;;;3.47;1.00;;;24.10;99.90;;;;;;4976410;28;20197;-88
2021/08/07 11:45:57;;;;;;;3.40;0.80;;;24.20;99.90;;;;;;4974966;28;21004;-87
2021/08/07 11:48:24;;;;;;;1.95;1.05;;;23.70;99.90;;;;;;4974853;28;20178;-88
2021/08/07 11:50:51;;;;;;;2.67;0.90;;;23.70;99.90;;;;;;4975061;28;20236;-89
2021/08/07 11:53:21;;;;;;;2.83;0.77;;;23.60;99.90;;;;;;4974966;28;20161;-91
2021/08/07 11:55:55;;;;;;;1.52;0.60;;;23.60;99.90;;;;;;4974517;28;20197;-88
2021/08/07 11:58:21;;;;;;;4.20;0.82;;;23.90;99.90;;;;;;4974623;28;20629;-88
2021/08/07 12:00:46;;;;;;;4.55;1.10;;;24.00;99.90;;;;;;4974689;28;20180;-89
2021/08/07 12:03:13;;;;;;;4.05;1.30;;;24.10;99.90;;;;;;4973574;28;20158;-89
2021/08/07 12:05:53;;;;;;;2.10;0.55;;;24.20;99.90;;;;;;4975098;28;20285;-90
2021/08/07 12:08:20;;;;;;;2.72;0.68;;;24.20;99.90;;;;;;4977795;28;20268;-90
2021/08/07 12:11:04;;;;;;;4.63;1.00;;;24.20;99.90;;;;;;4979183;28;20220;-92
2021/08/07 12:13:35;;;;;;;3.85;1.30;;;23.60;99.90;;;;;;4975645;28;20184;-91
2021/08/07 12:16:04;;;;;;;5.00;0.80;;;23.80;99.90;;;;;;4976006;28;20205;-88
2021/08/07 12:18:52;;;;;;;2.88;0.80;;;23.90;99.90;;;;;;4976420;28;20198;-88
2021/08/07 12:21:24;;;;;;;2.45;0.63;;;24.10;99.90;;;;;;4975926;28;20173;-90
2021/08/07 12:23:50;;;;;;;5.78;1.13;;;24.20;99.90;;;;;;4975665;28;20735;-90
2021/08/07 12:26:18;;;;;;;2.63;0.90;;;24.50;99.90;;;;;;4975657;28;20190;-88
2021/08/07 12:28:45;;;;;;;0.90;0.60;;;24.70;99.90;;;;;;4974028;28;20170;-89
2021/08/07 12:31:12;;;;;;;4.30;0.98;;;24.60;99.90;;;;;;4974606;28;20173;-88
2021/08/07 12:33:43;;;;;;;3.95;0.70;;;24.90;99.90;;;;;;4974759;28;20216;-88
2021/08/07 12:36:18;;;;;;;1.70;0.60;;;25.10;99.90;;;;;;4974570;28;20209;-88
2021/08/07 12:38:47;;;;;;;1.70;0.80;;;25.20;99.90;;;;;;4974246;28;20199;-90
2021/08/07 12:41:19;;;;;;;2.92;0.80;;;25.10;99.90;;;;;;4976965;28;20189;-86
2021/08/07 12:43:46;;;;;;;2.05;0.90;;;25.00;99.90;;;;;;4977949;28;20176;-83
2021/08/07 12:46:14;;;;;;;1.00;0.65;;;25.00;99.90;;;;;;4976511;28;20189;-87
2021/08/07 12:48:47;;;;;;;2.45;0.93;;;25.10;99.90;;;;;;4974421;28;20182;-88
2021/08/07 12:51:29;;;;;;;13.13;0.88;;;24.60;99.90;;;;;;4974858;28;20683;-84
2021/08/07 12:53:59;;;;;;;4.53;0.88;;;24.90;99.90;;;;;;4974607;28;20177;-88
2021/08/07 12:56:29;;;;;;;1.38;0.60;;;24.90;99.90;;;;;;4974887;28;20210;-92